createdAt,value
2019-05-28T00:02:02.898Z,4.07
2019-05-28T00:04:40.032Z,3.50
2019-05-28T00:07:16.618Z,3.23
2019-05-28T00:09:53.928Z,2.70
2019-05-28T00:12:29.424Z,2.50
2019-05-28T00:15:03.291Z,4.03
2019-05-28T00:17:38.026Z,3.23
2019-05-28T00:20:13.010Z,3.63
2019-05-28T00:22:45.402Z,3.90
2019-05-28T00:25:26.909Z,3.03
2019-05-28T00:28:00.480Z,3.10
2019-05-28T00:30:37.998Z,2.80
2019-05-28T00:33:13.334Z,3.07
2019-05-28T00:35:50.604Z,3.40
2019-05-28T00:38:27.042Z,3.20
2019-05-28T00:41:00.339Z,3.57
2019-05-28T00:43:39.206Z,3.57
2019-05-28T00:46:10.427Z,3.27
2019-05-28T00:48:42.886Z,3.30
2019-05-28T00:51:15.109Z,2.83
2019-05-28T00:53:47.873Z,3.50
2019-05-28T00:56:22.259Z,3.40
2019-05-28T00:58:58.310Z,2.80
2019-05-28T01:01:31.534Z,2.87
2019-05-28T01:04:02.411Z,2.87
2019-05-28T01:06:36.121Z,3.10
2019-05-28T01:09:19.834Z,3.50
2019-05-28T01:11:53.256Z,3.30
2019-05-28T01:14:24.563Z,2.60
2019-05-28T01:16:58.460Z,2.60
2019-05-28T01:19:31.590Z,4.07
2019-05-28T01:22:09.626Z,2.80
2019-05-28T01:24:40.683Z,3.53
2019-05-28T01:27:12.820Z,4.60
2019-05-28T01:29:47.495Z,5.33
2019-05-28T01:32:18.963Z,3.90
2019-05-28T01:34:51.982Z,5.57
2019-05-28T01:37:27.462Z,4.50
2019-05-28T01:40:03.286Z,5.30
2019-05-28T01:42:35.774Z,4.10
2019-05-28T01:45:11.115Z,4.67
2019-05-28T01:47:50.264Z,3.03
2019-05-28T01:50:26.871Z,2.87
2019-05-28T01:52:58.411Z,3.00
2019-05-28T01:55:32.798Z,3.13
2019-05-28T01:58:04.880Z,2.73
2019-05-28T02:00:38.853Z,3.10
2019-05-28T02:03:13.242Z,3.00
2019-05-28T02:05:44.421Z,3.03
2019-05-28T02:08:15.951Z,2.50
2019-05-28T02:10:47.668Z,3.10
2019-05-28T02:13:23.558Z,2.83
2019-05-28T02:15:57.545Z,2.60
2019-05-28T02:18:32.103Z,3.10
2019-05-28T02:21:05.790Z,2.50
2019-05-28T02:23:40.717Z,4.10
2019-05-28T02:26:20.609Z,2.30
2019-05-28T02:28:52.285Z,4.03
2019-05-28T02:31:37.793Z,4.43
2019-05-28T02:34:17.077Z,3.73
2019-05-28T02:36:55.822Z,3.23
2019-05-28T02:39:31.252Z,3.93
2019-05-28T02:42:04.416Z,2.70
2019-05-28T02:44:42.583Z,3.93
2019-05-28T02:47:24.626Z,3.00
2019-05-28T02:50:01.967Z,3.47
2019-05-28T02:52:35.981Z,2.97
2019-05-28T02:55:11.299Z,2.80
2019-05-28T02:57:47.987Z,3.27
2019-05-28T03:00:20.969Z,3.13
2019-05-28T03:02:56.958Z,3.30
2019-05-28T03:05:31.290Z,3.17
2019-05-28T03:08:03.011Z,3.17
2019-05-28T03:11:01.149Z,2.33
2019-05-28T03:13:13.705Z,3.00
2019-05-28T03:15:50.426Z,3.00
2019-05-28T03:18:28.631Z,3.60
2019-05-28T03:21:11.152Z,3.83
2019-05-28T03:23:46.907Z,4.67
2019-05-28T03:26:23.784Z,3.43
2019-05-28T03:28:55.491Z,4.07
2019-05-28T03:31:29.791Z,3.93
2019-05-28T03:34:04.370Z,3.10
2019-05-28T03:36:48.476Z,4.90
2019-05-28T03:39:22.899Z,4.47
2019-05-28T03:41:55.347Z,3.97
2019-05-28T03:44:26.324Z,4.10
2019-05-28T03:47:05.880Z,4.13
2019-05-28T03:49:39.005Z,4.77
2019-05-28T03:52:11.661Z,3.87
2019-05-28T03:54:45.814Z,3.50
2019-05-28T03:57:36.524Z,4.00
2019-05-28T04:00:08.471Z,4.20
2019-05-28T04:02:41.414Z,3.80
2019-05-28T04:05:21.409Z,4.87
2019-05-28T04:08:05.114Z,5.00
2019-05-28T04:10:41.817Z,5.03
2019-05-28T04:13:21.131Z,4.83
2019-05-28T04:15:51.318Z,5.10
2019-05-28T04:18:28.551Z,4.87
2019-05-28T04:21:10.271Z,6.80
2019-05-28T04:23:47.212Z,4.53
2019-05-28T04:26:28.995Z,4.13
2019-05-28T04:29:06.821Z,5.33
2019-05-28T04:31:45.241Z,5.30
2019-05-28T04:34:24.341Z,5.23
2019-05-28T04:36:59.391Z,4.90
2019-05-28T04:39:38.396Z,6.07
2019-05-28T04:42:15.451Z,4.53
2019-05-28T04:44:55.356Z,5.67
2019-05-28T04:48:09.729Z,5.10
2019-05-28T04:50:42.360Z,5.30
2019-05-28T04:53:29.908Z,4.97
2019-05-28T05:04:00.598Z,5.47
2019-05-28T05:07:12.733Z,5.23
2019-05-28T05:10:05.573Z,5.97
2019-05-28T05:13:06.585Z,4.77
2019-05-28T05:16:36.426Z,6.47
2019-05-28T05:24:09.839Z,5.83
2019-05-28T05:39:09.033Z,6.30
2019-05-28T05:42:13.517Z,6.80
2019-05-28T05:45:35.250Z,6.10
2019-05-28T05:48:23.851Z,5.87
2019-05-28T05:51:43.786Z,7.00
2019-05-28T05:55:05.078Z,6.30
2019-05-28T05:58:20.192Z,6.70
2019-05-28T06:01:08.542Z,6.30
2019-05-28T06:04:18.966Z,6.70
2019-05-28T06:11:25.575Z,4.70
2019-05-28T06:14:31.081Z,5.00
2019-05-28T06:17:29.272Z,4.60
2019-05-28T06:20:39.131Z,4.70
2019-05-28T06:23:56.663Z,5.07
2019-05-28T06:26:56.754Z,6.50
2019-05-28T06:30:05.133Z,6.20
2019-05-28T06:33:20.018Z,5.87
2019-05-28T06:36:44.953Z,5.87
2019-05-28T06:40:23.492Z,7.30
2019-05-28T06:47:07.259Z,5.57
2019-05-28T06:50:31.550Z,6.90
2019-05-28T06:59:59.225Z,7.00
2019-05-28T07:06:11.145Z,5.90
2019-05-28T07:13:19.275Z,6.53
2019-05-28T07:19:54.966Z,6.30
2019-05-28T07:27:04.055Z,8.37
2019-05-28T07:30:23.548Z,6.60
2019-05-28T07:33:49.924Z,6.63
2019-05-28T07:41:09.127Z,7.90
2019-05-28T07:44:34.979Z,10.20
2019-05-28T07:47:47.722Z,8.87
2019-05-28T07:50:39.828Z,7.13
2019-05-28T07:53:47.188Z,9.37
2019-05-28T07:56:52.303Z,8.18
2019-05-28T08:03:33.328Z,9.40
2019-05-28T08:06:25.428Z,9.33
2019-05-28T08:09:50.968Z,6.13
2019-05-28T08:23:23.842Z,13.10
2019-05-28T08:30:19.071Z,8.93
2019-05-28T08:33:01.200Z,7.70
2019-05-28T08:36:31.598Z,7.80
2019-05-28T08:39:37.852Z,7.90
2019-05-28T08:42:54.572Z,7.90
2019-05-28T08:46:09.932Z,7.10
2019-05-28T08:49:34.466Z,6.70
2019-05-28T08:56:43.524Z,5.50
2019-05-28T08:59:50.122Z,5.20
2019-05-28T09:03:30.923Z,5.20
2019-05-28T09:06:11.516Z,4.70
2019-05-28T09:09:44.187Z,3.70
2019-05-28T09:13:23.750Z,4.10
2019-05-28T09:32:20.473Z,6.63
2019-05-28T09:36:08.181Z,5.80
2019-05-28T09:38:58.704Z,6.60
2019-05-28T09:42:18.103Z,6.10
2019-05-28T09:48:54.300Z,6.20
2019-05-28T09:55:55.980Z,7.50
2019-05-28T09:58:55.929Z,8.23
2019-05-28T10:06:06.710Z,10.03
2019-05-28T10:09:19.572Z,9.33
2019-05-28T10:15:50.038Z,10.00
2019-05-28T10:19:11.507Z,9.87
2019-05-28T10:23:08.432Z,8.67
2019-05-28T10:29:57.673Z,8.93
2019-05-28T10:37:40.164Z,7.90
2019-05-28T10:45:42.751Z,7.60
2019-05-28T10:49:05.807Z,7.40
2019-05-28T10:52:04.303Z,8.17
2019-05-28T10:59:14.174Z,9.30
2019-05-28T11:02:29.325Z,10.00
2019-05-28T11:05:25.568Z,9.37
2019-05-28T11:11:34.689Z,13.07
2019-05-28T11:15:00.763Z,12.50
2019-05-28T11:18:26.796Z,13.60
2019-05-28T11:22:37.218Z,12.10
2019-05-28T11:37:52.211Z,11.87
2019-05-28T11:41:41.853Z,11.47
2019-05-28T11:52:31.555Z,10.63
2019-05-28T11:55:20.556Z,7.53
2019-05-28T11:58:27.829Z,5.40
2019-05-28T12:01:33.926Z,4.97
2019-05-28T12:20:27.680Z,1.50
2019-05-28T12:36:28.797Z,2.87
2019-05-28T12:46:51.874Z,3.43
2019-05-28T12:50:19.132Z,2.47
2019-05-28T13:01:17.660Z,2.30
2019-05-28T13:31:25.792Z,2.50
2019-05-28T13:37:54.996Z,3.50
2019-05-28T13:49:02.545Z,3.33
2019-05-28T14:04:23.906Z,4.70
2019-05-28T14:14:50.583Z,3.50
2019-05-28T14:17:53.924Z,4.90
2019-05-28T14:29:33.847Z,4.33
2019-05-28T14:32:50.437Z,2.97
2019-05-28T14:36:06.311Z,3.40
2019-05-28T14:46:34.894Z,2.63
2019-05-28T14:49:50.261Z,2.33
2019-05-28T14:53:30.098Z,2.73
2019-05-28T14:56:58.152Z,2.03
2019-05-28T15:00:09.761Z,3.40
2019-05-28T15:08:01.010Z,2.03
2019-05-28T15:19:54.995Z,2.50
2019-05-28T15:26:54.546Z,2.77
2019-05-28T15:34:07.430Z,2.13
2019-05-28T15:45:24.315Z,1.80
2019-05-28T15:48:45.569Z,2.50
2019-05-28T15:52:38.857Z,2.93
2019-05-28T16:00:38.314Z,2.20
2019-05-28T16:03:44.006Z,1.97
2019-05-28T16:11:23.844Z,2.57
2019-05-28T16:14:55.824Z,2.47
2019-05-28T16:18:09.226Z,3.07
2019-05-28T16:25:26.119Z,2.93
2019-05-28T16:28:56.557Z,2.70
2019-05-28T16:35:00.798Z,4.23
2019-05-28T16:51:11.733Z,4.13
2019-05-28T16:57:24.885Z,2.83
2019-05-28T17:00:18.882Z,3.13
2019-05-28T17:03:20.149Z,3.40
2019-05-28T17:06:08.883Z,2.50
2019-05-28T17:09:12.845Z,2.90
2019-05-28T17:12:15.701Z,3.50
2019-05-28T17:15:27.303Z,4.67
2019-05-28T17:26:00.516Z,3.73
2019-05-28T17:29:05.072Z,4.93
2019-05-28T17:32:24.051Z,3.47
2019-05-28T17:36:08.046Z,3.43
2019-05-28T17:42:41.692Z,4.43
2019-05-28T17:50:09.074Z,3.37
2019-05-28T17:53:14.555Z,3.57
2019-05-28T17:56:01.267Z,3.93
2019-05-28T18:06:52.864Z,3.40
2019-05-28T18:09:57.542Z,4.50
2019-05-28T18:12:56.193Z,4.97
2019-05-28T18:15:37.376Z,3.90
2019-05-28T18:22:43.281Z,2.80
2019-05-28T18:29:57.737Z,5.33
2019-05-28T18:32:48.727Z,4.00
2019-05-28T18:38:46.054Z,4.60
2019-05-28T18:41:47.343Z,3.33
2019-05-28T18:44:47.404Z,4.83
2019-05-28T18:47:47.772Z,7.37
2019-05-28T18:50:52.984Z,5.47
2019-05-28T18:53:42.901Z,4.07
2019-05-28T18:56:22.803Z,6.07
2019-05-28T18:59:20.962Z,3.80
2019-05-28T19:02:01.555Z,3.93
2019-05-28T19:04:38.001Z,4.53
2019-05-28T19:07:16.470Z,6.73
2019-05-28T19:09:58.321Z,6.70
2019-05-28T19:13:08.251Z,3.73
2019-05-28T19:15:48.012Z,4.60
2019-05-28T19:18:25.140Z,5.13
2019-05-28T19:21:04.284Z,5.57
2019-05-28T19:23:43.416Z,6.00
2019-05-28T19:26:26.872Z,5.30
2019-05-28T19:29:07.913Z,4.90
2019-05-28T19:31:46.363Z,4.87
2019-05-28T19:34:35.672Z,5.20
2019-05-28T19:37:31.866Z,4.53
2019-05-28T19:40:14.629Z,4.43
2019-05-28T19:42:54.102Z,5.20
2019-05-28T19:45:56.955Z,5.50
2019-05-28T19:48:37.177Z,7.80
2019-05-28T19:51:17.604Z,7.20
2019-05-28T19:54:17.013Z,5.50
2019-05-28T19:57:14.283Z,5.90
2019-05-28T19:59:50.563Z,5.73
2019-05-28T20:02:40.264Z,11.73
2019-05-28T20:05:15.793Z,6.63
2019-05-28T20:07:48.151Z,5.50
2019-05-28T20:10:27.582Z,4.90
2019-05-28T20:13:14.016Z,5.03
2019-05-28T20:16:12.768Z,4.80
2019-05-28T20:19:08.682Z,4.30
2019-05-28T20:22:03.704Z,5.37
2019-05-28T20:24:38.050Z,7.53
2019-05-28T20:27:20.127Z,8.97
2019-05-28T20:30:12.319Z,4.37
2019-05-28T20:33:13.386Z,4.63
2019-05-28T20:35:44.798Z,4.67
2019-05-28T20:38:44.256Z,3.80
2019-05-28T20:41:55.754Z,3.80
2019-05-28T20:45:02.473Z,3.90
2019-05-28T20:47:41.872Z,3.60
2019-05-28T20:50:41.989Z,4.73
2019-05-28T20:53:33.258Z,6.87
2019-05-28T20:56:01.885Z,3.40
2019-05-28T20:58:40.337Z,3.80
2019-05-28T21:01:25.353Z,3.17
2019-05-28T21:04:01.377Z,3.23
2019-05-28T21:06:40.925Z,3.30
2019-05-28T21:09:13.044Z,2.87
2019-05-28T21:11:52.691Z,3.47
2019-05-28T21:14:39.312Z,3.50
2019-05-28T21:17:33.790Z,4.70
2019-05-28T21:20:07.247Z,3.03
2019-05-28T21:22:47.352Z,4.57
2019-05-28T21:25:31.962Z,3.37
2019-05-28T21:28:18.063Z,3.10
2019-05-28T21:31:08.309Z,2.60
2019-05-28T21:33:50.723Z,3.20
2019-05-28T21:36:26.481Z,2.93
2019-05-28T21:38:59.690Z,2.67
2019-05-28T21:41:36.568Z,3.37
2019-05-28T21:44:17.064Z,2.97
2019-05-28T21:46:54.873Z,2.63
2019-05-28T21:49:27.100Z,2.50
2019-05-28T21:52:05.124Z,3.03
2019-05-28T21:54:38.286Z,2.93
2019-05-28T21:57:17.992Z,3.53
2019-05-28T21:59:50.515Z,3.40
2019-05-28T22:02:25.679Z,3.37
2019-05-28T22:05:03.403Z,3.00
2019-05-28T22:07:41.716Z,2.60
2019-05-28T22:10:18.873Z,3.60
2019-05-28T22:12:50.778Z,3.03
2019-05-28T22:15:30.909Z,3.00
2019-05-28T22:18:06.917Z,3.53
2019-05-28T22:20:38.495Z,2.80
2019-05-28T22:23:21.340Z,3.10
2019-05-28T22:25:53.937Z,3.50
2019-05-28T22:28:34.522Z,3.50
2019-05-28T22:31:08.634Z,3.30
2019-05-28T22:33:46.762Z,3.20
2019-05-28T22:36:32.863Z,3.00
2019-05-28T22:39:17.118Z,3.37
2019-05-28T22:41:52.462Z,2.40
2019-05-28T22:44:26.243Z,3.10
2019-05-28T22:47:01.034Z,3.23
2019-05-28T22:49:47.023Z,2.63
2019-05-28T22:52:20.583Z,3.07
2019-05-28T22:54:56.329Z,4.10
2019-05-28T22:57:35.126Z,2.93
2019-05-28T23:00:13.317Z,2.83
2019-05-28T23:03:02.862Z,2.90
2019-05-28T23:05:41.662Z,3.53
2019-05-28T23:08:15.052Z,3.23
2019-05-28T23:10:51.323Z,3.20
2019-05-28T23:13:25.054Z,3.40
2019-05-28T23:15:56.643Z,2.90
2019-05-28T23:18:38.115Z,3.20
2019-05-28T23:21:11.000Z,3.30
2019-05-28T23:24:03.029Z,3.07
2019-05-28T23:26:41.215Z,2.80
2019-05-28T23:29:18.197Z,2.80
2019-05-28T23:32:01.954Z,3.40
2019-05-28T23:34:42.109Z,3.03
2019-05-28T23:37:17.520Z,3.10
2019-05-28T23:39:52.443Z,2.73
2019-05-28T23:42:30.101Z,3.07
2019-05-28T23:45:06.175Z,3.93
2019-05-28T23:47:39.453Z,3.17
2019-05-28T23:50:18.101Z,3.43
2019-05-28T23:52:49.503Z,4.57
2019-05-28T23:58:34.683Z,3.23
